Map

Track Data

SID SEASON NUMBER BASIN SUBBASIN NAME ISO_TIME NATURE LAT LON WMO_WIND WMO_PRES WMO_AGENCY TRACK_TYPE DIST2LAND LANDFALL IFLAG USA_AGENCY USA_ATCF_ID USA_LAT USA_LON USA_RECORD USA_STATUS USA_WIND USA_PRES USA_SSHS USA_R34_NE USA_R34_SE USA_R34_SW USA_R34_NW USA_R50_NE USA_R50_SE USA_R50_SW USA_R50_NW USA_R64_NE USA_R64_SE USA_R64_SW USA_R64_NW USA_POCI USA_ROCI USA_RMW USA_EYE TOKYO_LAT TOKYO_LON TOKYO_GRADE TOKYO_WIND TOKYO_PRES TOKYO_R50_DIR TOKYO_R50_LONG TOKYO_R50_SHORT TOKYO_R30_DIR TOKYO_R30_LONG TOKYO_R30_SHORT TOKYO_LAND CMA_LAT CMA_LON CMA_CAT CMA_WIND CMA_PRES HKO_LAT HKO_LON HKO_CAT HKO_WIND HKO_PRES NEWDELHI_LAT NEWDELHI_LON NEWDELHI_GRADE NEWDELHI_WIND NEWDELHI_PRES NEWDELHI_CI NEWDELHI_DP NEWDELHI_POCI REUNION_LAT REUNION_LON REUNION_TYPE REUNION_WIND REUNION_PRES REUNION_TNUM REUNION_CI REUNION_RMW REUNION_R34_NE REUNION_R34_SE REUNION_R34_SW REUNION_R34_NW REUNION_R50_NE REUNION_R50_SE REUNION_R50_SW REUNION_R50_NW REUNION_R64_NE REUNION_R64_SE REUNION_R64_SW REUNION_R64_NW BOM_LAT BOM_LON BOM_TYPE BOM_WIND BOM_PRES BOM_TNUM BOM_CI BOM_RMW BOM_R34_NE BOM_R34_SE BOM_R34_SW BOM_R34_NW BOM_R50_NE BOM_R50_SE BOM_R50_SW BOM_R50_NW BOM_R64_NE BOM_R64_SE BOM_R64_SW BOM_R64_NW BOM_ROCI BOM_POCI BOM_EYE BOM_POS_METHOD BOM_PRES_METHOD NADI_LAT NADI_LON NADI_CAT NADI_WIND NADI_PRES WELLINGTON_LAT WELLINGTON_LON WELLINGTON_WIND WELLINGTON_PRES DS824_LAT DS824_LON DS824_STAGE DS824_WIND DS824_PRES TD9636_LAT TD9636_LON TD9636_STAGE TD9636_WIND TD9636_PRES TD9635_LAT TD9635_LON TD9635_WIND TD9635_PRES TD9635_ROCI NEUMANN_LAT NEUMANN_LON NEUMANN_CLASS NEUMANN_WIND NEUMANN_PRES MLC_LAT MLC_LON MLC_CLASS MLC_WIND MLC_PRES USA_GUST BOM_GUST BOM_GUST_PER REUNION_GUST REUNION_GUST_PER USA_SEAHGT USA_SEARAD_NE USA_SEARAD_SE USA_SEARAD_SW USA_SEARAD_NW STORM_SPEED STORM_DIR
1918188N13146 1918 38 WP MM NOT_NAMED 1918-07-06 22:00:00 NR 13.0000 146.000 main 1693 1693 __________O___ -1 13.0000 146.000 4 11 279
1918188N13146 1918 38 WP MM NOT_NAMED 1918-07-07 00:00:00 NR 13.0587 145.639 main 1706 1706 __________P___ -1 13.0587 145.639 4 11 279
1918188N13146 1918 38 WP MM NOT_NAMED 1918-07-07 03:00:00 NR 13.1429 145.108 main 1711 1711 __________P___ -1 13.1429 145.108 4 10 279
1918188N13146 1918 38 WP MM NOT_NAMED 1918-07-07 06:00:00 NR 13.2189 144.603 main 1728 1728 __________P___ -1 13.2189 144.603 4 10 278
1918188N13146 1918 38 WP MM NOT_NAMED 1918-07-07 09:00:00 NR 13.2823 144.142 main 1747 1747 __________P___ -1 13.2823 144.142 4 9 278
1918188N13146 1918 38 WP MM NOT_NAMED 1918-07-07 10:00:00 NR 13.3000 144.000 main 1749 1749 __________O___ -1 13.3000 144.000 4 8 277
1918188N13146 1918 38 WP MM NOT_NAMED 1918-07-07 12:00:00 NR 13.3306 143.735 main 1754 1754 __________P___ -1 13.3306 143.735 4 8 277
1918188N13146 1918 38 WP MM NOT_NAMED 1918-07-07 15:00:00 NR 13.3765 143.352 main 1772 1758 __________P___ -1 13.3765 143.352 4 8 278
1918188N13146 1918 38 WP MM NOT_NAMED 1918-07-07 18:00:00 NR 13.4424 142.930 main 1758 1754 __________P___ -1 13.4424 142.930 4 9 281
1918188N13146 1918 38 WP MM NOT_NAMED 1918-07-07 21:00:00 NR 13.5507 142.407 main 1764 1756 __________P___ -1 13.5507 142.407 4 11 283
1918188N13146 1918 38 WP MM NOT_NAMED 1918-07-07 22:00:00 NR 13.6000 142.200 main 1756 1745 __________O___ -1 13.6000 142.200 4 14 284
1918188N13146 1918 38 WP MM NOT_NAMED 1918-07-08 00:00:00 NR 13.7304 141.688 main 1745 1663 __________P___ -1 13.7304 141.688 4 17 285
1918188N13146 1918 38 WP MM NOT_NAMED 1918-07-08 03:00:00 NR 13.9696 140.805 main 1663 1572 __________P___ -1 13.9696 140.805 4 19 286
1918188N13146 1918 38 WP MM NOT_NAMED 1918-07-08 06:00:00 NR 14.2383 139.851 main 1572 1472 __________P___ -1 14.2383 139.851 4 19 286
1918188N13146 1918 38 WP MM NOT_NAMED 1918-07-08 09:00:00 NR 14.5119 138.902 main 1472 1442 __________P___ -1 14.5119 138.902 4 19 287
1918188N13146 1918 38 WP MM NOT_NAMED 1918-07-08 10:00:00 NR 14.6000 138.600 main 1442 1391 __________O___ -1 14.6000 138.600 4 17 287
1918188N13146 1918 38 WP MM NOT_NAMED 1918-07-08 12:00:00 NR 14.7545 138.068 main 1393 1313 __________P___ -1 14.7545 138.068 4 16 287
1918188N13146 1918 38 WP MM NOT_NAMED 1918-07-08 15:00:00 NR 14.9809 137.308 main 1313 1245 __________P___ -1 14.9809 137.308 4 15 287
1918188N13146 1918 38 WP MM NOT_NAMED 1918-07-08 18:00:00 NR 15.2036 136.574 main 1245 1168 __________P___ -1 15.2036 136.574 4 15 287
1918188N13146 1918 38 WP MM NOT_NAMED 1918-07-08 21:00:00 NR 15.4257 135.846 main 1168 1151 __________P___ -1 15.4257 135.846 4 15 288
1918188N13146 1918 38 WP MM NOT_NAMED 1918-07-08 22:00:00 NR 15.5000 135.600 main 1151 1104 __________O___ -1 15.5000 135.600 4 15 286
1918188N13146 1918 38 WP MM NOT_NAMED 1918-07-09 00:00:00 NR 15.6419 135.078 main 1104 1031 __________P___ -1 15.6419 135.078 4 16 286
1918188N13146 1918 38 WP MM NOT_NAMED 1918-07-09 03:00:00 NR 15.8548 134.289 main 1035 966 __________P___ -1 15.8548 134.289 4 16 286
1918188N13146 1918 38 WP MM NOT_NAMED 1918-07-09 06:00:00 NR 16.0760 133.506 main 966 901 __________P___ -1 16.0760 133.506 4 16 287
1918188N13146 1918 38 WP MM NOT_NAMED 1918-07-09 09:00:00 NR 16.3148 132.746 main 901 888 __________P___ -1 16.3148 132.746 4 15 289
1918188N13146 1918 38 WP MM NOT_NAMED 1918-07-09 10:00:00 NR 16.4000 132.500 main 888 856 __________O___ -1 16.4000 132.500 4 15 290
1918188N13146 1918 38 WP MM NOT_NAMED 1918-07-09 12:00:00 NR 16.5723 131.988 main 856 798 __________P___ -1 16.5723 131.988 4 15 290
1918188N13146 1918 38 WP MM NOT_NAMED 1918-07-09 15:00:00 NR 16.8498 131.244 main 798 754 __________P___ -1 16.8498 131.244 4 15 293
1918188N13146 1918 38 WP MM NOT_NAMED 1918-07-09 18:00:00 NR 17.1524 130.560 main 760 716 __________P___ -1 17.1524 130.560 4 14 297
1918188N13146 1918 38 WP MM NOT_NAMED 1918-07-09 21:00:00 NR 17.4830 129.970 main 722 711 __________P___ -1 17.4830 129.970 4 13 302
1918188N13146 1918 38 WP MM NOT_NAMED 1918-07-09 22:00:00 NR 17.6000 129.800 main 711 698 __________O___ -1 17.6000 129.800 4 12 308
1918188N13146 1918 38 WP MM NOT_NAMED 1918-07-10 00:00:00 NR 17.8325 129.493 main 698 695 __________P___ -1 17.8325 129.493 4 11 313
1918188N13146 1918 38 WP MM NOT_NAMED 1918-07-10 03:00:00 NR 18.2070 129.127 main 695 695 __________P___ -1 18.2070 129.127 4 10 322
1918188N13146 1918 38 WP MM NOT_NAMED 1918-07-10 06:00:00 NR 18.6124 128.855 main 696 675 __________P___ -1 18.6124 128.855 4 10 332
1918188N13146 1918 38 WP MM NOT_NAMED 1918-07-10 09:00:00 NR 19.0481 128.655 main 677 667 __________P___ -1 19.0481 128.655 4 10 338
1918188N13146 1918 38 WP MM NOT_NAMED 1918-07-10 10:00:00 NR 19.2000 128.600 main 669 660 __________O___ -1 19.2000 128.600 4 10 340
1918188N13146 1918 38 WP MM NOT_NAMED 1918-07-10 12:00:00 NR 19.5103 128.472 main 663 652 __________P___ -1 19.5103 128.472 4 10 342
1918188N13146 1918 38 WP MM NOT_NAMED 1918-07-10 15:00:00 NR 20.0012 128.330 main 654 654 __________P___ -1 20.0012 128.330 4 10 348
1918188N13146 1918 38 WP MM NOT_NAMED 1918-07-10 18:00:00 NR 20.5114 128.242 main 661 661 __________P___ -1 20.5114 128.242 4 10 353
1918188N13146 1918 38 WP MM NOT_NAMED 1918-07-10 21:00:00 NR 21.0284 128.203 main 682 687 __________P___ -1 21.0284 128.203 4 10 357
1918188N13146 1918 38 WP MM NOT_NAMED 1918-07-10 22:00:00 NR 21.2000 128.200 main 692 692 __________O___ -1 21.2000 128.200 4 10 358
1918188N13146 1918 38 WP MM NOT_NAMED 1918-07-11 00:00:00 NR 21.5333 128.188 main 707 701 __________P___ -1 21.5333 128.188 4 10 2
1918188N13146 1918 38 WP MM NOT_NAMED 1918-07-11 03:00:00 NR 22.0332 128.209 main 701 683 __________P___ -1 22.0332 128.209 4 10 5
1918188N13146 1918 38 WP MM NOT_NAMED 1918-07-11 06:00:00 NR 22.5332 128.269 main 689 675 __________P___ -1 22.5332 128.269 4 10 8
1918188N13146 1918 38 WP MM NOT_NAMED 1918-07-11 09:00:00 NR 23.0333 128.363 main 682 676 __________P___ -1 23.0333 128.363 4 10 10
1918188N13146 1918 38 WP MM NOT_NAMED 1918-07-11 10:00:00 NR 23.2000 128.400 main 676 671 __________O___ -1 23.2000 128.400 4 10 13
1918188N13146 1918 38 WP MM NOT_NAMED 1918-07-11 12:00:00 NR 23.5334 128.483 main 679 671 __________P___ -1 23.5334 128.483 4 10 14
1918188N13146 1918 38 WP MM NOT_NAMED 1918-07-11 15:00:00 NR 24.0335 128.623 main 676 674 __________P___ -1 24.0335 128.623 4 10 15
1918188N13146 1918 38 WP MM NOT_NAMED 1918-07-11 18:00:00 NR 24.5335 128.779 main 688 686 __________P___ -1 24.5335 128.779 4 10 16
1918188N13146 1918 38 WP MM NOT_NAMED 1918-07-11 21:00:00 NR 25.0334 128.944 main 692 668 __________P___ -1 25.0334 128.944 4 10 17
1918188N13146 1918 38 WP MM NOT_NAMED 1918-07-11 22:00:00 NR 25.2000 129.000 main 668 __________O___ -1 25.2000 129.000 4 10 20

Digital Typhoon Data and Search

About IBTrACS Database

This database is a web-friendly format of International Best Track Archive for Climate Stewardship (IBTrACS), a global best track data archive curated by NOAA dating back to 1842.

Updated: 2021-12-06